Breda, Netherlands
Current Conditions -  °F | °C
As of 12:25 PM on Saturday 22 Nov 2014 (Local Time) from EHGR Reporting Station
Overcast Overcast  
Wind Chill: 54°   Ceiling: 14000
Heat Index: 54°   Visibility: 6mi
Dew Point: 46°   Wind: 9mph
Humidity: 77%   Direction: 170°S
Pressure: 30"   Gusts: NA
Location:  51.56°N, 4.76°E
Report Text: EHGR 221125Z AUTO 17008KT 9999 OVC140 12/08 Q1016 BLU
Loading
Personal Weather Stations






























Interactive Weather Map New forecast layout! Learn more

10-Day Weather Forecast

Advertisements
Track Severe Weather on mobile